createdAt,value
2019-02-20T00:01:03.453Z,1.70
2019-02-20T00:03:32.710Z,1.71
2019-02-20T00:06:02.183Z,1.64
2019-02-20T00:08:31.370Z,1.61
2019-02-20T00:11:00.638Z,1.61
2019-02-20T00:13:30.003Z,1.63
2019-02-20T00:15:59.104Z,1.66
2019-02-20T00:18:28.232Z,1.54
2019-02-20T00:20:57.356Z,1.54
2019-02-20T00:23:26.792Z,1.52
2019-02-20T00:25:55.882Z,1.45
2019-02-20T00:28:25.144Z,1.45
2019-02-20T00:30:54.300Z,1.51
2019-02-20T00:33:23.494Z,1.47
2019-02-20T00:35:52.976Z,1.43
2019-02-20T00:38:22.253Z,1.26
2019-02-20T00:40:51.380Z,1.26
2019-02-20T00:43:20.517Z,1.36
2019-02-20T00:46:26.761Z,1.36
2019-02-20T00:49:06.966Z,1.40
2019-02-20T00:51:44.280Z,1.26
2019-02-20T00:54:13.689Z,1.21
2019-02-20T00:56:42.853Z,1.14
2019-02-20T00:59:12.277Z,1.14
2019-02-20T01:01:41.441Z,1.14
2019-02-20T01:04:10.724Z,1.06
2019-02-20T01:06:40.020Z,1.08
2019-02-20T01:09:09.321Z,1.00
2019-02-20T01:11:38.564Z,1.01
2019-02-20T01:14:07.711Z,1.04
2019-02-20T01:16:37.005Z,0.97
2019-02-20T01:19:06.275Z,1.00
2019-02-20T01:21:35.372Z,1.01
2019-02-20T01:24:04.662Z,0.88
2019-02-20T01:26:33.835Z,0.90
2019-02-20T01:29:02.929Z,1.00
2019-02-20T01:31:32.023Z,1.05
2019-02-20T01:34:01.270Z,1.09
2019-02-20T01:36:30.555Z,1.17
2019-02-20T01:39:00.127Z,1.18
2019-02-20T01:41:29.219Z,1.09
2019-02-20T01:43:58.293Z,1.06
2019-02-20T01:46:27.418Z,0.99
2019-02-20T01:48:58.569Z,0.94
2019-02-20T01:51:27.852Z,0.90
2019-02-20T01:53:57.434Z,0.85
2019-02-20T01:56:26.550Z,0.83
2019-02-20T01:58:55.646Z,0.84
2019-02-20T02:01:24.919Z,0.83
2019-02-20T02:03:54.175Z,0.95
2019-02-20T02:06:23.293Z,0.84
2019-02-20T02:08:52.549Z,0.90
2019-02-20T02:11:21.609Z,0.87
2019-02-20T02:13:51.025Z,0.77
2019-02-20T02:16:20.393Z,0.74
2019-02-20T02:18:49.546Z,0.69
2019-02-20T02:21:18.664Z,0.63
2019-02-20T02:23:48.046Z,0.81
2019-02-20T02:26:17.343Z,0.81
2019-02-20T02:28:46.488Z,0.68
2019-02-20T02:31:15.542Z,0.79
2019-02-20T02:33:44.614Z,0.86
2019-02-20T02:36:13.739Z,0.85
2019-02-20T02:38:43.105Z,0.83
2019-02-20T02:41:12.209Z,0.79
2019-02-20T02:43:41.351Z,0.77
2019-02-20T02:46:10.688Z,0.85
2019-02-20T02:48:39.923Z,0.82
2019-02-20T02:51:09.351Z,0.70
2019-02-20T02:53:38.561Z,0.61
2019-02-20T02:56:07.639Z,0.47
2019-02-20T02:58:36.738Z,0.56
2019-02-20T03:01:05.997Z,0.47
2019-02-20T03:03:35.219Z,0.51
2019-02-20T03:06:04.652Z,0.54
2019-02-20T03:08:33.719Z,0.65
2019-02-20T03:11:03.006Z,0.63
2019-02-20T03:13:32.231Z,0.52
2019-02-20T03:16:01.362Z,0.54
2019-02-20T03:18:30.709Z,0.52
2019-02-20T03:20:59.857Z,0.59
2019-02-20T03:23:29.075Z,0.57
2019-02-20T03:25:58.183Z,0.61
2019-02-20T03:28:27.385Z,0.63
2019-02-20T03:30:56.760Z,0.58
2019-02-20T03:33:25.869Z,0.59
2019-02-20T03:35:55.166Z,0.69
2019-02-20T03:38:30.361Z,0.53
2019-02-20T03:40:55.552Z,0.73
2019-02-20T03:43:24.842Z,0.75
2019-02-20T03:45:53.941Z,0.75
2019-02-20T03:48:23.273Z,0.78
2019-02-20T03:50:52.372Z,0.79
2019-02-20T03:53:21.622Z,0.77
2019-02-20T03:55:51.047Z,0.80
2019-02-20T03:58:20.200Z,0.74
2019-02-20T04:00:49.470Z,0.81
2019-02-20T04:03:18.626Z,0.86
2019-02-20T04:05:47.738Z,0.81
2019-02-20T04:08:17.041Z,0.88
2019-02-20T04:10:46.196Z,0.84
2019-02-20T04:13:15.612Z,0.90
2019-02-20T04:15:44.689Z,0.82
2019-02-20T04:18:13.960Z,0.88
2019-02-20T04:20:43.148Z,0.91
2019-02-20T04:23:12.240Z,0.86
2019-02-20T04:25:41.649Z,0.97
2019-02-20T04:28:17.818Z,1.00
2019-02-20T04:30:47.021Z,0.88
2019-02-20T04:33:16.258Z,0.86
2019-02-20T04:35:45.349Z,0.98
2019-02-20T04:38:14.894Z,0.93
2019-02-20T04:40:44.010Z,0.86
2019-02-20T04:43:13.224Z,0.89
2019-02-20T04:45:42.291Z,0.85
2019-02-20T04:48:11.359Z,0.84
2019-02-20T04:50:40.510Z,0.83
2019-02-20T04:53:09.712Z,0.66
2019-02-20T04:55:38.947Z,0.71
2019-02-20T04:58:19.188Z,0.69
2019-02-20T05:00:48.300Z,0.73
2019-02-20T05:03:17.397Z,0.76
2019-02-20T05:05:46.880Z,0.66
2019-02-20T05:08:16.262Z,0.67
2019-02-20T05:10:45.510Z,0.72
2019-02-20T05:13:14.631Z,0.79
2019-02-20T05:15:43.967Z,0.86
2019-02-20T05:18:13.056Z,0.95
2019-02-20T05:20:42.318Z,0.84
2019-02-20T05:23:11.394Z,0.72
2019-02-20T05:25:40.607Z,0.87
2019-02-20T05:28:09.740Z,0.87
2019-02-20T05:30:38.827Z,0.87
2019-02-20T05:33:08.104Z,0.91
2019-02-20T05:35:37.259Z,0.85
2019-02-20T05:38:06.492Z,0.81
2019-02-20T05:40:35.742Z,0.82
2019-02-20T05:43:05.047Z,0.76
2019-02-20T05:45:34.304Z,0.51
2019-02-20T05:48:03.357Z,0.55
2019-02-20T05:50:32.530Z,0.42
2019-02-20T05:53:01.874Z,0.38
2019-02-20T05:55:30.941Z,0.37
2019-02-20T05:58:00.211Z,0.35
2019-02-20T06:00:29.641Z,0.33
2019-02-20T06:02:58.776Z,0.27
2019-02-20T06:05:28.062Z,0.24
2019-02-20T06:07:57.140Z,0.17
2019-02-20T06:10:26.391Z,0.21
2019-02-20T06:12:55.601Z,0.18
2019-02-20T06:15:25.178Z,0.21
2019-02-20T06:17:54.225Z,0.16
2019-02-20T06:20:23.346Z,0.11
2019-02-20T06:22:52.646Z,0.06
2019-02-20T06:25:21.742Z,0.03
2019-02-20T06:27:50.834Z,0.05
2019-02-20T06:30:20.133Z,0.03
2019-02-20T06:32:49.388Z,0.00
2019-02-20T06:35:18.606Z,0.02
2019-02-20T06:37:47.810Z,-0.10
2019-02-20T06:40:16.944Z,-0.10
2019-02-20T06:42:46.302Z,-0.07
2019-02-20T06:45:15.764Z,0.09
2019-02-20T06:47:44.943Z,0.03
2019-02-20T06:50:14.226Z,0.01
2019-02-20T06:52:45.178Z,0.01
2019-02-20T06:55:14.311Z,0.06
2019-02-20T06:57:43.648Z,0.10
2019-02-20T07:00:13.103Z,0.20
2019-02-20T07:02:42.883Z,0.29
2019-02-20T07:05:51.777Z,0.35
2019-02-20T07:08:58.369Z,0.50
2019-02-20T07:11:44.409Z,0.61
2019-02-20T07:14:45.826Z,0.86
2019-02-20T07:17:38.774Z,1.13
2019-02-20T07:20:42.550Z,1.61
2019-02-20T07:23:40.272Z,2.04
2019-02-20T07:26:41.480Z,2.26
2019-02-20T07:29:43.506Z,2.30
2019-02-20T07:32:15.565Z,2.54
2019-02-20T07:34:44.630Z,2.86
2019-02-20T07:37:13.720Z,2.95
2019-02-20T07:39:43.045Z,2.93
2019-02-20T07:42:12.313Z,3.06
2019-02-20T07:44:41.429Z,3.00
2019-02-20T07:47:10.527Z,3.08
2019-02-20T07:49:39.721Z,3.21
2019-02-20T07:52:08.825Z,3.21
2019-02-20T07:54:38.106Z,3.22
2019-02-20T07:57:07.215Z,3.46
2019-02-20T07:59:36.541Z,3.46
2019-02-20T08:02:05.740Z,3.76
2019-02-20T08:04:35.005Z,3.98
2019-02-20T08:07:04.208Z,3.87
2019-02-20T08:09:33.372Z,3.87
2019-02-20T08:12:02.692Z,3.89
2019-02-20T08:14:31.945Z,4.31
2019-02-20T08:17:01.253Z,4.31
2019-02-20T08:19:30.345Z,4.50
2019-02-20T08:21:59.531Z,5.12
2019-02-20T08:24:28.616Z,4.90
2019-02-20T08:26:57.933Z,4.90
2019-02-20T08:29:27.364Z,5.31
2019-02-20T08:31:56.442Z,5.68
2019-02-20T08:34:25.591Z,5.68
2019-02-20T08:36:56.594Z,5.52
2019-02-20T08:39:25.982Z,5.26
2019-02-20T08:41:55.503Z,5.04
2019-02-20T08:44:24.583Z,5.34
2019-02-20T08:46:53.789Z,5.34
2019-02-20T08:49:22.868Z,5.43
2019-02-20T08:51:52.234Z,5.68
2019-02-20T08:54:21.388Z,5.68
2019-02-20T08:56:50.535Z,5.89
2019-02-20T08:59:19.947Z,6.24
2019-02-20T09:01:49.077Z,6.61
2019-02-20T09:04:18.172Z,6.80
2019-02-20T09:06:47.631Z,7.02
2019-02-20T09:09:16.923Z,7.03
2019-02-20T09:11:46.143Z,7.20
2019-02-20T09:14:15.341Z,7.43
2019-02-20T09:16:44.561Z,7.53
2019-02-20T09:19:13.637Z,7.79
2019-02-20T09:21:42.776Z,8.00
2019-02-20T09:24:11.927Z,8.30
2019-02-20T09:26:41.244Z,8.56
2019-02-20T09:29:10.463Z,8.85
2019-02-20T09:31:39.659Z,8.94
2019-02-20T09:34:09.018Z,9.07
2019-02-20T09:36:38.316Z,9.26
2019-02-20T09:39:45.197Z,9.40
2019-02-20T09:42:20.085Z,9.57
2019-02-20T09:44:50.055Z,9.65
2019-02-20T09:47:20.317Z,9.86
2019-02-20T09:49:49.412Z,9.93
2019-02-20T09:52:18.562Z,10.17
2019-02-20T09:54:47.674Z,10.18
2019-02-20T09:57:16.778Z,10.30
2019-02-20T09:59:46.067Z,10.41
2019-02-20T10:02:15.168Z,10.54
2019-02-20T10:04:47.173Z,10.63
2019-02-20T10:07:16.580Z,10.72
2019-02-20T10:09:45.754Z,10.87
2019-02-20T10:12:15.268Z,10.85
2019-02-20T10:14:44.371Z,10.93
2019-02-20T10:17:13.543Z,10.83
2019-02-20T10:19:42.824Z,10.78
2019-02-20T10:22:12.135Z,10.86
2019-02-20T10:24:41.237Z,10.81
2019-02-20T10:27:10.327Z,10.84
2019-02-20T10:29:39.503Z,11.02
2019-02-20T10:32:08.961Z,11.14
2019-02-20T10:34:38.118Z,11.09
2019-02-20T10:37:07.214Z,11.15
2019-02-20T10:39:36.478Z,11.23
2019-02-20T10:42:05.690Z,11.27
2019-02-20T10:44:35.027Z,11.36
2019-02-20T10:47:04.298Z,11.48
2019-02-20T10:49:33.551Z,11.62
2019-02-20T10:52:02.649Z,11.71
2019-02-20T10:54:34.665Z,11.73
2019-02-20T10:57:03.893Z,11.73
2019-02-20T10:59:33.215Z,11.78
2019-02-20T11:02:02.355Z,11.94
2019-02-20T11:04:31.660Z,12.04
2019-02-20T11:07:00.794Z,12.22
2019-02-20T11:09:31.811Z,12.16
2019-02-20T11:12:01.267Z,12.20
2019-02-20T11:14:30.576Z,12.22
2019-02-20T11:16:59.683Z,12.19
2019-02-20T11:19:29.072Z,12.29
2019-02-20T11:21:58.222Z,12.32
2019-02-20T11:24:27.413Z,12.51
2019-02-20T11:26:56.526Z,12.39
2019-02-20T11:29:25.975Z,12.24
2019-02-20T11:31:56.511Z,12.14
2019-02-20T11:34:28.084Z,12.08
2019-02-20T11:36:57.380Z,12.01
2019-02-20T11:39:37.303Z,11.94
2019-02-20T11:41:59.633Z,11.95
2019-02-20T11:44:28.931Z,12.12
2019-02-20T11:46:58.169Z,12.27
2019-02-20T11:49:27.401Z,12.45
2019-02-20T11:51:56.496Z,12.50
2019-02-20T11:54:27.935Z,12.60
2019-02-20T11:56:57.054Z,12.73
2019-02-20T15:41:45.410Z,12.13
2019-02-20T15:44:14.675Z,12.17
2019-02-20T15:46:44.043Z,12.22
2019-02-20T15:49:13.208Z,12.15
2019-02-20T15:51:42.402Z,12.13
2019-02-20T15:54:11.500Z,12.04
2019-02-20T15:56:40.746Z,12.03
2019-02-20T15:59:09.960Z,11.95
2019-02-20T16:01:39.256Z,11.86
2019-02-20T16:04:08.614Z,11.82
2019-02-20T16:06:37.767Z,11.76
2019-02-20T16:09:07.620Z,11.68
2019-02-20T16:11:36.948Z,11.63
2019-02-20T16:14:06.197Z,11.56
2019-02-20T16:16:35.326Z,11.51
2019-02-20T16:19:05.027Z,11.43
2019-02-20T16:21:36.933Z,11.42
2019-02-20T16:24:06.156Z,11.39
2019-02-20T16:26:35.285Z,11.38
2019-02-20T16:29:04.534Z,11.32
2019-02-20T16:31:33.893Z,11.29
2019-02-20T16:34:04.127Z,11.22
2019-02-20T16:36:33.410Z,11.20
2019-02-20T16:39:02.732Z,11.11
2019-02-20T16:41:31.968Z,11.07
2019-02-20T16:44:01.295Z,11.01
2019-02-20T16:46:30.629Z,10.99
2019-02-20T16:49:00.190Z,10.93
2019-02-20T16:51:29.564Z,10.87
2019-02-20T16:53:58.907Z,10.79
2019-02-20T16:56:28.311Z,10.71
2019-02-20T16:58:57.581Z,10.62
2019-02-20T17:01:26.713Z,10.57
2019-02-20T17:03:55.846Z,10.56
2019-02-20T17:06:24.942Z,10.49
2019-02-20T17:08:54.302Z,10.41
2019-02-20T17:11:23.602Z,10.34
2019-02-20T17:13:52.875Z,10.31
2019-02-20T17:16:21.908Z,10.26
2019-02-20T17:18:51.071Z,10.19
2019-02-20T17:21:20.283Z,10.16
2019-02-20T17:23:49.654Z,10.05
2019-02-20T17:26:18.825Z,9.94
2019-02-20T17:28:47.944Z,9.84
2019-02-20T17:31:17.149Z,9.69
2019-02-20T17:33:46.391Z,9.62
2019-02-20T17:36:16.197Z,9.48
2019-02-20T17:38:45.421Z,9.38
2019-02-20T17:41:14.783Z,9.27
2019-02-20T17:43:44.037Z,9.17
2019-02-20T17:46:13.418Z,9.07
2019-02-20T17:48:42.608Z,9.03
2019-02-20T17:51:12.343Z,8.98
2019-02-20T17:53:41.446Z,8.84
2019-02-20T17:56:10.782Z,8.78
2019-02-20T17:58:40.225Z,8.69
2019-02-20T18:01:15.831Z,8.62
2019-02-20T18:03:45.030Z,8.49
2019-02-20T18:06:14.380Z,8.46
2019-02-20T18:08:43.663Z,8.37
2019-02-20T18:11:13.315Z,8.29
2019-02-20T18:13:42.757Z,8.19
2019-02-20T18:16:11.941Z,8.04
2019-02-20T18:18:41.213Z,7.95
2019-02-20T18:21:10.567Z,7.87
2019-02-20T18:23:39.633Z,7.83
2019-02-20T18:26:08.800Z,7.76
2019-02-20T18:28:37.907Z,7.95
2019-02-20T18:31:07.062Z,7.75
2019-02-20T18:33:36.474Z,7.61
2019-02-20T18:36:05.802Z,7.53
2019-02-20T18:38:34.915Z,7.49
2019-02-20T18:41:04.013Z,7.49
2019-02-20T18:43:33.275Z,7.46
2019-02-20T18:46:02.351Z,7.41
2019-02-20T18:48:31.605Z,7.29
2019-02-20T18:51:00.728Z,7.22
2019-02-20T18:53:31.001Z,7.16
2019-02-20T18:56:00.174Z,7.08
2019-02-20T18:58:33.970Z,7.10
2019-02-20T19:01:00.500Z,7.06
2019-02-20T19:03:30.648Z,7.02
2019-02-20T19:06:00.088Z,6.89
2019-02-20T19:08:47.268Z,6.88
2019-02-20T19:11:32.254Z,6.81
2019-02-20T19:14:31.174Z,6.74
2019-02-20T19:17:41.496Z,6.69
2019-02-20T19:20:32.012Z,6.59
2019-02-20T19:23:22.518Z,6.57
2019-02-20T19:26:31.089Z,6.50
2019-02-20T19:29:59.746Z,6.40
2019-02-20T19:33:25.103Z,6.40
2019-02-20T19:36:44.536Z,6.29
2019-02-20T19:39:59.366Z,6.34
2019-02-20T19:42:59.949Z,6.35
2019-02-20T19:46:00.255Z,6.27
2019-02-20T19:48:55.072Z,6.15
2019-02-20T19:52:23.519Z,6.07
2019-02-20T19:55:22.311Z,6.12
2019-02-20T19:58:09.629Z,6.03
2019-02-20T20:01:30.988Z,5.98
2019-02-20T20:04:33.623Z,6.07
2019-02-20T20:07:49.755Z,5.99
2019-02-20T20:10:51.631Z,5.89
2019-02-20T20:14:02.210Z,5.83
2019-02-20T20:17:30.469Z,5.84
2019-02-20T20:20:32.282Z,5.80
2019-02-20T20:23:36.688Z,5.74
2019-02-20T20:26:43.499Z,5.64
2019-02-20T20:29:57.512Z,5.60
2019-02-20T20:32:56.540Z,5.46
2019-02-20T20:36:28.170Z,5.43
2019-02-20T20:39:16.708Z,5.40
2019-02-20T20:42:26.433Z,5.27
2019-02-20T20:45:26.989Z,5.21
2019-02-20T20:48:18.777Z,5.19
2019-02-20T20:51:13.885Z,5.18
2019-02-20T20:54:26.473Z,5.21
2019-02-20T20:57:28.145Z,5.23
2019-02-20T21:00:10.732Z,5.38
2019-02-20T21:02:57.366Z,5.43
2019-02-20T21:06:11.859Z,5.42
2019-02-20T21:09:33.747Z,5.41
2019-02-20T21:12:38.622Z,5.47
2019-02-20T21:15:52.205Z,5.39
2019-02-20T21:19:02.850Z,5.37
2019-02-20T21:21:47.987Z,5.27
2019-02-20T21:24:45.259Z,5.16
2019-02-20T21:27:58.799Z,5.16
2019-02-20T21:31:03.884Z,5.01
2019-02-20T21:34:00.230Z,4.93
2019-02-20T21:36:57.700Z,4.79
2019-02-20T21:39:52.289Z,4.74
2019-02-20T21:42:34.540Z,4.66
2019-02-20T21:45:16.251Z,4.64
2019-02-20T21:48:28.559Z,4.55
2019-02-20T21:51:26.247Z,4.51
2019-02-20T21:54:40.158Z,4.51
2019-02-20T21:57:39.275Z,4.51
2019-02-20T22:00:42.722Z,4.36
2019-02-20T22:03:56.021Z,4.36
2019-02-20T22:06:59.527Z,4.36
2019-02-20T22:10:01.825Z,4.39
2019-02-20T22:13:06.843Z,4.39
2019-02-20T22:16:00.385Z,4.43
2019-02-20T22:18:40.344Z,4.35
2019-02-20T22:21:33.519Z,4.41
2019-02-20T22:24:59.011Z,4.31
2019-02-20T22:28:08.016Z,4.34
2019-02-20T22:31:00.833Z,4.08
2019-02-20T22:33:48.424Z,4.08
2019-02-20T22:36:52.269Z,4.01
2019-02-20T22:39:31.071Z,4.01
2019-02-20T22:42:31.168Z,3.80
2019-02-20T22:45:23.151Z,3.78
2019-02-20T22:48:28.303Z,3.77
2019-02-20T22:51:15.698Z,3.83
2019-02-20T22:54:16.233Z,3.81
2019-02-20T22:57:31.208Z,3.68
2019-02-20T23:00:40.877Z,3.58
2019-02-20T23:03:21.784Z,3.60
2019-02-20T23:06:33.825Z,3.60
2019-02-20T23:09:28.317Z,3.58
2019-02-20T23:12:12.972Z,3.54
2019-02-20T23:14:58.044Z,3.61
2019-02-20T23:17:27.822Z,3.56
2019-02-20T23:19:57.945Z,3.56
2019-02-20T23:22:27.438Z,3.52
2019-02-20T23:24:56.718Z,3.44
2019-02-20T23:27:26.049Z,3.44
2019-02-20T23:29:55.126Z,3.47
2019-02-20T23:32:24.362Z,3.38
2019-02-20T23:34:53.466Z,3.32
2019-02-20T23:37:22.882Z,3.33
2019-02-20T23:39:51.984Z,3.27
2019-02-20T23:42:21.347Z,3.27
2019-02-20T23:44:50.439Z,3.29
2019-02-20T23:47:19.707Z,3.27
2019-02-20T23:49:48.839Z,3.27
2019-02-20T23:52:17.955Z,3.25
2019-02-20T23:54:47.373Z,3.18
2019-02-20T23:57:16.496Z,3.21
2019-02-20T23:59:45.803Z,3.18
